Time;durP1;ratioP1;P1;durP2;ratioP2;P2;SDS_P1;SDS_P2;PMS_P1;PMS_P2;Temp;Humidity;BMP_temperature;BMP_pressure;BME280_temperature;BME280_humidity;BME280_pressure;Samples;Min_cycle;Max_cycle;Signal;HPM_P1;HPM_P2
2021/06/24 00:01:30;;;;;;;2.20;1.30;;;17.50;99.90;;;;;;5050224;28;20021;-81
2021/06/24 00:03:55;;;;;;;2.95;1.10;;;17.50;99.90;;;;;;5056739;28;20040;-81
2021/06/24 00:06:21;;;;;;;3.70;1.30;;;17.40;99.90;;;;;;5032093;28;20457;-81
2021/06/24 00:08:47;;;;;;;5.63;1.50;;;17.40;99.90;;;;;;5039122;28;20128;-81
2021/06/24 00:11:13;;;;;;;3.22;1.00;;;17.40;99.90;;;;;;5057280;28;20029;-80
2021/06/24 00:13:39;;;;;;;3.88;1.00;;;17.20;99.90;;;;;;5056646;28;20029;-81
2021/06/24 00:16:06;;;;;;;1.83;0.88;;;17.20;99.90;;;;;;5035679;28;20037;-81
2021/06/24 00:18:31;;;;;;;3.30;1.02;;;17.20;99.90;;;;;;5054116;28;20036;-81
2021/06/24 00:20:57;;;;;;;2.30;1.00;;;17.30;99.90;;;;;;5057326;28;20104;-81
2021/06/24 00:23:24;;;;;;;1.50;0.60;;;17.30;99.90;;;;;;5034495;28;20094;-81
2021/06/24 00:25:50;;;;;;;2.40;1.00;;;17.20;99.90;;;;;;5053712;28;20073;-81
2021/06/24 00:28:16;;;;;;;2.05;0.98;;;17.20;99.90;;;;;;5056652;28;20021;-81
2021/06/24 00:30:47;;;;;;;2.15;1.02;;;17.20;99.90;;;;;;5055866;28;20016;-80
2021/06/24 00:33:13;;;;;;;4.15;1.40;;;17.00;99.90;;;;;;5034033;28;20033;-81
2021/06/24 00:35:40;;;;;;;4.07;1.42;;;16.90;99.90;;;;;;5041759;28;20029;-80
2021/06/24 00:38:06;;;;;;;2.38;1.35;;;16.80;99.90;;;;;;5057028;28;20108;-80
2021/06/24 00:40:36;;;;;;;6.18;1.35;;;16.50;99.90;;;;;;5057202;28;20051;-80
2021/06/24 00:43:03;;;;;;;3.80;1.70;;;16.50;99.90;;;;;;5041997;28;20021;-81
2021/06/24 00:45:29;;;;;;;3.53;2.22;;;16.40;99.90;;;;;;5055190;28;20068;-80
2021/06/24 00:47:55;;;;;;;3.65;2.00;;;16.40;99.90;;;;;;5053532;28;20096;-80
2021/06/24 00:50:21;;;;;;;4.85;2.40;;;16.40;99.90;;;;;;5046489;28;20033;-81
2021/06/24 00:52:46;;;;;;;3.50;2.08;;;16.30;99.90;;;;;;5018723;28;20035;-81
2021/06/24 00:55:12;;;;;;;4.20;2.78;;;16.40;99.90;;;;;;5018213;28;20029;-81
2021/06/24 00:57:39;;;;;;;4.60;2.92;;;16.50;99.90;;;;;;5037255;28;20108;-81
2021/06/24 01:00:08;;;;;;;4.40;2.90;;;16.60;99.90;;;;;;5026046;28;20036;-81
2021/06/24 01:02:36;;;;;;;5.00;2.72;;;16.50;99.90;;;;;;5018622;28;20063;-80
2021/06/24 01:05:02;;;;;;;6.20;3.33;;;16.60;99.90;;;;;;5053002;28;20017;-81
2021/06/24 01:07:28;;;;;;;6.50;3.67;;;16.60;99.90;;;;;;5056551;28;20044;-81
2021/06/24 01:09:53;;;;;;;5.70;3.40;;;16.60;99.90;;;;;;5049535;28;20041;-81
2021/06/24 01:12:20;;;;;;;6.35;3.22;;;16.70;99.90;;;;;;5054117;28;20078;-81
2021/06/24 01:14:48;;;;;;;4.53;2.75;;;16.80;99.90;;;;;;5056465;28;20024;-81
2021/06/24 01:17:14;;;;;;;5.25;2.70;;;16.80;99.90;;;;;;5056052;28;20020;-81
2021/06/24 01:19:40;;;;;;;3.80;2.30;;;16.90;99.90;;;;;;5049624;28;20527;-81
2021/06/24 01:22:06;;;;;;;4.32;2.47;;;17.00;99.90;;;;;;5056794;28;20036;-81
2021/06/24 01:24:32;;;;;;;3.92;2.40;;;17.00;99.90;;;;;;5038556;28;20543;-81
2021/06/24 01:26:57;;;;;;;3.83;2.38;;;17.00;99.90;;;;;;5053659;28;20151;-81
2021/06/24 01:29:23;;;;;;;4.40;2.30;;;17.10;99.90;;;;;;5037311;28;20057;-81
2021/06/24 01:31:49;;;;;;;3.47;1.90;;;17.10;99.90;;;;;;5018383;28;20143;-81
2021/06/24 01:34:14;;;;;;;4.25;1.80;;;17.20;99.90;;;;;;5055146;28;20477;-81
2021/06/24 01:36:40;;;;;;;4.05;2.08;;;17.30;99.90;;;;;;5049618;28;20047;-81
2021/06/24 01:39:09;;;;;;;3.42;1.95;;;17.30;99.90;;;;;;5056943;28;20029;-81
2021/06/24 01:41:35;;;;;;;4.32;2.50;;;17.40;99.90;;;;;;5056188;28;20029;-81
2021/06/24 01:44:01;;;;;;;5.03;2.33;;;17.40;99.90;;;;;;5053660;28;20021;-81
2021/06/24 01:46:27;;;;;;;3.45;1.98;;;17.40;99.90;;;;;;5035771;28;20105;-81
2021/06/24 01:48:53;;;;;;;3.45;2.25;;;17.40;99.90;;;;;;5056159;28;20029;-81
2021/06/24 01:51:18;;;;;;;3.83;1.98;;;17.40;99.90;;;;;;5056476;28;20036;-81
2021/06/24 01:53:44;;;;;;;3.13;1.67;;;17.40;99.90;;;;;;5040525;28;20029;-81
2021/06/24 01:56:10;;;;;;;3.97;2.00;;;17.40;99.90;;;;;;5036019;28;20501;-81
2021/06/24 01:58:36;;;;;;;4.13;2.10;;;17.40;99.90;;;;;;5021485;28;20060;-81
2021/06/24 02:01:03;;;;;;;3.50;1.98;;;17.20;99.90;;;;;;5040422;28;20079;-81
2021/06/24 02:03:32;;;;;;;3.83;1.67;;;17.20;99.90;;;;;;5041228;28;20029;-81
2021/06/24 02:05:58;;;;;;;3.45;1.90;;;17.20;99.90;;;;;;5060836;28;20434;-81
2021/06/24 02:08:26;;;;;;;5.93;2.30;;;17.20;99.90;;;;;;5061726;28;20028;-81
2021/06/24 02:10:54;;;;;;;3.17;1.85;;;17.20;99.90;;;;;;5056173;28;20369;-81
2021/06/24 02:13:20;;;;;;;3.60;1.50;;;17.20;99.90;;;;;;5059264;28;20036;-81
2021/06/24 02:15:45;;;;;;;2.85;1.70;;;17.10;99.90;;;;;;5043819;28;20029;-81
2021/06/24 02:18:12;;;;;;;5.97;1.65;;;17.20;99.90;;;;;;5055682;28;20049;-81
2021/06/24 02:20:38;;;;;;;2.33;1.50;;;17.30;99.90;;;;;;5062329;28;20051;-81
2021/06/24 02:23:04;;;;;;;2.83;1.27;;;17.30;99.90;;;;;;5066295;28;20473;-81
2021/06/24 02:25:32;;;;;;;4.40;1.80;;;17.30;99.90;;;;;;5039254;28;20021;-81
2021/06/24 02:28:01;;;;;;;5.65;1.60;;;17.20;99.90;;;;;;5081499;28;20031;-81
2021/06/24 02:30:29;;;;;;;4.43;1.77;;;17.20;99.90;;;;;;5081035;28;20024;-81
2021/06/24 02:32:54;;;;;;;2.47;1.25;;;17.30;99.90;;;;;;5063505;28;20025;-81
2021/06/24 02:35:24;;;;;;;3.67;1.90;;;17.20;99.90;;;;;;5062592;28;20033;-81
2021/06/24 02:37:50;;;;;;;3.25;1.60;;;17.30;99.90;;;;;;5060568;28;20107;-81
2021/06/24 02:40:17;;;;;;;3.42;1.77;;;17.20;99.90;;;;;;5059798;28;20068;-81
2021/06/24 02:42:45;;;;;;;4.53;1.58;;;17.20;99.90;;;;;;5058726;28;20035;-81
2021/06/24 02:45:12;;;;;;;3.70;1.90;;;17.20;99.90;;;;;;5022552;28;20025;-81
2021/06/24 02:47:38;;;;;;;2.92;1.50;;;17.20;99.90;;;;;;5031315;28;20424;-81
2021/06/24 02:50:06;;;;;;;3.20;1.67;;;17.40;99.90;;;;;;5058602;28;20037;-81
2021/06/24 02:52:31;;;;;;;3.80;2.20;;;17.20;99.90;;;;;;5069707;28;20035;-81
2021/06/24 02:54:57;;;;;;;4.25;2.20;;;17.20;99.90;;;;;;5079400;28;20032;-81
2021/06/24 02:57:23;;;;;;;3.78;2.45;;;17.30;99.90;;;;;;5079301;28;20495;-81
2021/06/24 02:59:48;;;;;;;5.13;2.63;;;17.00;99.90;;;;;;5072423;28;20071;-81
2021/06/24 03:02:14;;;;;;;5.57;2.58;;;16.90;99.90;;;;;;5022053;28;20478;-81
2021/06/24 03:04:40;;;;;;;3.75;2.55;;;16.90;99.90;;;;;;5045651;28;20174;-81
2021/06/24 03:07:06;;;;;;;5.00;2.50;;;16.80;99.90;;;;;;5040627;28;20036;-81
2021/06/24 03:09:31;;;;;;;3.50;2.30;;;16.80;99.90;;;;;;5044152;28;20115;-81
2021/06/24 03:11:57;;;;;;;5.00;2.30;;;16.70;99.90;;;;;;5058716;28;20108;-81
2021/06/24 03:14:23;;;;;;;5.38;2.47;;;16.70;99.90;;;;;;5038915;28;20080;-81
2021/06/24 03:16:49;;;;;;;3.67;2.10;;;16.70;99.90;;;;;;5041838;28;20014;-81
2021/06/24 03:19:15;;;;;;;4.50;1.50;;;16.60;99.90;;;;;;5058213;28;20104;-81
2021/06/24 03:21:41;;;;;;;3.95;1.73;;;16.70;99.90;;;;;;5058001;28;20040;-81
2021/06/24 03:24:07;;;;;;;3.90;1.67;;;16.60;99.90;;;;;;5057268;28;20028;-81
2021/06/24 03:26:34;;;;;;;3.00;1.45;;;16.80;99.90;;;;;;5056354;28;20025;-81
2021/06/24 03:29:00;;;;;;;2.95;1.40;;;16.50;99.90;;;;;;5021261;28;20037;-81
2021/06/24 03:31:26;;;;;;;2.97;1.30;;;16.60;99.90;;;;;;5020349;28;20433;-81
2021/06/24 03:33:51;;;;;;;3.30;1.55;;;16.60;99.90;;;;;;5020150;28;20021;-81
2021/06/24 03:36:18;;;;;;;3.90;2.00;;;16.60;99.90;;;;;;5054108;28;20076;-81
2021/06/24 03:38:46;;;;;;;3.22;1.88;;;16.60;99.90;;;;;;5052475;28;20073;-81
2021/06/24 03:41:13;;;;;;;3.67;2.05;;;16.50;99.90;;;;;;5038398;28;20087;-81
2021/06/24 03:43:39;;;;;;;4.65;1.88;;;16.70;99.90;;;;;;5057415;28;20127;-81
2021/06/24 03:46:05;;;;;;;4.55;2.15;;;16.70;99.90;;;;;;5042032;28;20017;-81
2021/06/24 03:48:30;;;;;;;3.40;1.77;;;16.60;99.90;;;;;;5040353;28;20946;-81
2021/06/24 03:50:56;;;;;;;3.15;1.77;;;16.60;99.90;;;;;;5057766;28;20017;-81
2021/06/24 03:53:21;;;;;;;4.55;1.73;;;16.60;99.90;;;;;;5052822;28;20021;-81
2021/06/24 03:55:47;;;;;;;3.22;1.38;;;16.60;99.90;;;;;;5038491;28;20033;-81
2021/06/24 03:58:14;;;;;;;3.33;1.65;;;16.70;99.90;;;;;;5036030;28;20029;-81
2021/06/24 04:00:42;;;;;;;4.15;2.08;;;16.90;99.90;;;;;;5042316;28;20048;-81
2021/06/24 04:03:09;;;;;;;3.67;1.88;;;16.80;99.90;;;;;;5054749;28;20104;-81
2021/06/24 04:05:35;;;;;;;3.70;1.88;;;16.80;99.90;;;;;;5037752;28;20055;-81
2021/06/24 04:08:02;;;;;;;3.90;2.05;;;16.60;99.90;;;;;;5055908;28;20024;-81
2021/06/24 04:10:29;;;;;;;4.40;2.60;;;16.60;99.90;;;;;;5056431;28;20017;-81
2021/06/24 04:12:55;;;;;;;4.25;2.10;;;16.60;99.90;;;;;;5034718;28;20031;-81
2021/06/24 04:15:26;;;;;;;4.07;2.20;;;16.60;99.90;;;;;;5038477;28;20027;-81
2021/06/24 04:17:51;;;;;;;3.22;2.00;;;16.70;99.90;;;;;;5056363;28;20108;-81
2021/06/24 04:20:18;;;;;;;3.75;2.00;;;17.00;99.90;;;;;;5053247;28;20468;-81
2021/06/24 04:22:44;;;;;;;4.13;2.40;;;16.80;99.90;;;;;;5050368;28;20021;-81
2021/06/24 04:25:11;;;;;;;3.72;2.00;;;17.00;99.90;;;;;;5045490;28;20021;-81
2021/06/24 04:27:37;;;;;;;3.80;2.17;;;17.00;99.90;;;;;;5076367;28;20063;-81
2021/06/24 04:30:05;;;;;;;3.67;2.35;;;16.90;99.90;;;;;;5044402;28;20033;-81
2021/06/24 04:32:31;;;;;;;3.85;2.20;;;17.00;99.90;;;;;;5037586;28;20033;-81
2021/06/24 04:34:57;;;;;;;3.53;2.05;;;17.00;99.90;;;;;;5033635;28;20667;-81
2021/06/24 04:37:22;;;;;;;3.63;2.20;;;16.90;99.90;;;;;;5040730;28;20037;-81
2021/06/24 04:39:48;;;;;;;3.83;2.10;;;17.10;99.90;;;;;;5038403;28;20033;-81
2021/06/24 04:42:14;;;;;;;5.57;1.90;;;17.10;99.90;;;;;;5040441;28;20122;-81
2021/06/24 04:44:40;;;;;;;5.05;2.03;;;17.10;99.90;;;;;;5018458;28;20017;-81
2021/06/24 04:47:06;;;;;;;3.80;2.25;;;17.20;99.90;;;;;;5037391;28;20523;-81
2021/06/24 04:49:31;;;;;;;4.38;2.20;;;17.20;99.90;;;;;;5043384;28;20092;-80
2021/06/24 04:51:57;;;;;;;3.67;1.90;;;17.30;99.90;;;;;;5039410;28;20072;-81
2021/06/24 04:54:23;;;;;;;3.22;1.75;;;17.40;99.90;;;;;;5021803;28;20064;-81
2021/06/24 04:56:49;;;;;;;3.83;1.75;;;17.30;99.90;;;;;;5034037;28;20098;-81
2021/06/24 04:59:15;;;;;;;6.60;2.20;;;17.40;99.90;;;;;;5042691;28;20026;-81
2021/06/24 05:01:40;;;;;;;4.13;2.00;;;17.50;99.90;;;;;;5019184;28;20024;-81
2021/06/24 05:04:06;;;;;;;3.30;1.80;;;17.50;99.90;;;;;;5029183;28;20040;-81
2021/06/24 05:06:32;;;;;;;4.25;2.05;;;17.50;99.90;;;;;;5034328;28;20216;-81
2021/06/24 05:08:59;;;;;;;3.80;1.75;;;17.40;99.90;;;;;;5036294;28;20025;-81
2021/06/24 05:11:24;;;;;;;3.65;1.67;;;17.60;99.90;;;;;;5034807;28;20025;-81
2021/06/24 05:13:50;;;;;;;4.35;1.30;;;17.80;99.90;;;;;;5038118;28;20531;-82
2021/06/24 05:16:16;;;;;;;3.38;1.60;;;18.10;99.90;;;;;;5044250;28;20021;-81
2021/06/24 05:18:42;;;;;;;3.35;1.30;;;18.10;99.90;;;;;;5034439;28;20371;-81
2021/06/24 05:21:08;;;;;;;2.22;1.15;;;18.50;99.90;;;;;;5041309;28;20226;-81
2021/06/24 05:23:35;;;;;;;2.05;1.10;;;18.70;99.90;;;;;;5032627;28;20676;-81
2021/06/24 05:26:02;;;;;;;2.78;0.90;;;18.60;99.90;;;;;;5049476;28;20070;-82
2021/06/24 05:28:28;;;;;;;3.10;1.10;;;18.70;99.90;;;;;;5044746;28;20026;-81
2021/06/24 05:30:53;;;;;;;2.38;1.23;;;18.90;99.90;;;;;;5046635;28;20035;-81
2021/06/24 05:33:19;;;;;;;1.55;0.80;;;19.00;99.90;;;;;;5035665;28;20056;-81
2021/06/24 05:35:47;;;;;;;2.55;1.00;;;19.00;99.90;;;;;;5035712;28;20037;-81
2021/06/24 05:38:15;;;;;;;2.25;1.02;;;19.00;99.90;;;;;;5026364;28;20706;-81
2021/06/24 05:40:44;;;;;;;1.73;0.80;;;19.10;99.90;;;;;;5043419;28;20024;-82
2021/06/24 05:43:09;;;;;;;1.70;0.93;;;19.10;99.90;;;;;;5033918;28;20037;-82
2021/06/24 05:45:35;;;;;;;2.45;1.00;;;19.20;99.90;;;;;;5039242;28;20055;-81
2021/06/24 05:48:01;;;;;;;1.70;0.90;;;19.20;99.90;;;;;;5038693;28;20029;-81
2021/06/24 05:50:27;;;;;;;2.65;1.15;;;19.20;99.90;;;;;;5026368;28;20029;-81
2021/06/24 05:52:54;;;;;;;1.80;1.02;;;19.10;99.90;;;;;;5053193;28;20036;-81
2021/06/24 05:55:20;;;;;;;3.38;1.08;;;19.20;99.90;;;;;;5037650;28;20044;-81
2021/06/24 05:57:46;;;;;;;2.55;1.35;;;18.80;99.90;;;;;;5036102;28;20056;-82
2021/06/24 06:00:13;;;;;;;3.17;1.33;;;18.70;99.90;;;;;;5037269;28;20030;-81
2021/06/24 06:02:42;;;;;;;2.03;1.10;;;18.60;99.90;;;;;;5038152;28;20014;-81
2021/06/24 06:05:09;;;;;;;2.08;1.10;;;18.50;99.90;;;;;;5043169;28;20028;-81
2021/06/24 06:07:34;;;;;;;2.92;1.23;;;18.50;99.90;;;;;;5042580;28;20041;-81
2021/06/24 06:10:00;;;;;;;2.72;1.10;;;18.60;99.90;;;;;;5038121;28;20031;-82
2021/06/24 06:12:28;;;;;;;2.90;1.45;;;18.60;99.90;;;;;;5056574;28;20028;-82
2021/06/24 06:14:53;;;;;;;2.40;1.20;;;18.70;99.90;;;;;;5046085;28;20041;-82
2021/06/24 06:17:19;;;;;;;2.70;1.45;;;18.90;99.90;;;;;;5047031;28;20084;-80
2021/06/24 06:19:44;;;;;;;2.88;1.42;;;18.70;99.90;;;;;;5056064;28;20073;-81
2021/06/24 06:22:10;;;;;;;3.58;1.30;;;18.70;99.90;;;;;;5053622;28;20048;-81
2021/06/24 06:24:36;;;;;;;4.50;1.70;;;18.80;99.90;;;;;;5050991;28;20032;-81
2021/06/24 06:27:02;;;;;;;3.70;1.30;;;18.70;99.90;;;;;;5022223;28;20099;-81
2021/06/24 06:29:33;;;;;;;4.50;1.73;;;18.70;99.90;;;;;;5036879;28;20025;-81
2021/06/24 06:32:00;;;;;;;2.92;1.52;;;18.60;99.90;;;;;;5053744;28;20481;-81
2021/06/24 06:34:25;;;;;;;2.67;1.55;;;18.70;99.90;;;;;;5046854;28;20036;-80
2021/06/24 06:36:52;;;;;;;2.88;1.63;;;18.70;99.90;;;;;;5045661;28;20025;-81
2021/06/24 06:39:17;;;;;;;4.18;2.00;;;18.70;99.90;;;;;;5054133;28;20334;-81
2021/06/24 06:41:43;;;;;;;3.67;1.65;;;18.80;99.90;;;;;;5031086;28;20448;-82
2021/06/24 06:44:09;;;;;;;2.80;1.58;;;18.90;99.90;;;;;;5050478;28;20032;-81
2021/06/24 06:46:37;;;;;;;3.60;1.67;;;19.20;99.90;;;;;;5058486;28;20020;-82
2021/06/24 06:49:03;;;;;;;2.35;1.20;;;19.40;99.90;;;;;;5045995;28;20496;-81
2021/06/24 06:51:29;;;;;;;3.00;1.60;;;19.50;99.90;;;;;;5032262;28;20041;-82
2021/06/24 06:53:57;;;;;;;2.70;1.67;;;19.60;99.90;;;;;;5041315;28;20029;-82
2021/06/24 07:20:10;;;;;;;3.78;2.20;;;19.50;99.90;;;;;;5070273;27;20772;-83
2021/06/24 07:22:35;;;;;;;3.53;2.00;;;19.40;99.90;;;;;;5086609;28;20024;-83
2021/06/24 07:25:05;;;;;;;3.47;1.98;;;19.40;99.90;;;;;;5087283;28;20028;-82
2021/06/24 07:27:31;;;;;;;3.03;1.83;;;19.40;99.90;;;;;;5082888;28;20429;-83
2021/06/24 07:29:57;;;;;;;3.65;1.90;;;19.40;99.90;;;;;;5072114;28;20124;-83
2021/06/24 07:32:22;;;;;;;3.45;2.05;;;19.50;99.90;;;;;;5082823;28;20099;-83
2021/06/24 07:34:50;;;;;;;3.03;1.90;;;19.70;99.90;;;;;;5085630;28;20025;-83
2021/06/24 07:37:18;;;;;;;3.42;1.73;;;19.90;99.90;;;;;;5085153;28;20025;-84
2021/06/24 07:39:45;;;;;;;2.90;1.60;;;20.20;99.90;;;;;;5066475;28;20024;-83
2021/06/24 07:42:11;;;;;;;3.60;1.92;;;20.40;99.90;;;;;;5084894;28;20038;-83
2021/06/24 07:44:38;;;;;;;2.85;1.70;;;20.40;99.90;;;;;;5083960;28;20017;-83
2021/06/24 07:47:03;;;;;;;4.40;2.13;;;20.40;99.90;;;;;;5078302;28;20091;-83
2021/06/24 07:49:32;;;;;;;3.00;1.70;;;20.30;99.90;;;;;;5065353;28;20507;-83
2021/06/24 07:51:59;;;;;;;3.38;1.90;;;20.30;99.90;;;;;;5078508;28;20078;-83
2021/06/24 07:54:25;;;;;;;3.00;1.60;;;20.50;99.90;;;;;;5085702;28;20032;-83
2021/06/24 07:56:54;;;;;;;2.95;1.90;;;20.80;99.90;;;;;;5081186;28;20084;-85
2021/06/24 07:59:20;;;;;;;2.70;1.40;;;21.30;99.90;;;;;;5086682;28;20491;-85
2021/06/24 08:01:46;;;;;;;4.30;1.90;;;21.60;99.90;;;;;;5086944;28;20024;-84
2021/06/24 08:04:12;;;;;;;4.43;2.08;;;21.80;99.90;;;;;;5086829;28;20526;-84
2021/06/24 08:06:38;;;;;;;3.92;1.60;;;21.80;99.90;;;;;;5084612;28;20028;-85
2021/06/24 08:09:06;;;;;;;2.90;1.42;;;21.90;99.90;;;;;;5075182;28;20024;-85
2021/06/24 08:11:33;;;;;;;3.70;1.70;;;22.30;99.90;;;;;;5084628;28;20032;-85
2021/06/24 08:13:59;;;;;;;2.88;1.73;;;22.30;99.90;;;;;;5086643;28;20032;-84
2021/06/24 08:16:27;;;;;;;4.15;1.30;;;22.10;99.90;;;;;;5086943;28;20021;-85
2021/06/24 08:18:53;;;;;;;2.90;1.42;;;21.80;99.90;;;;;;5078861;28;20036;-84
2021/06/24 08:21:18;;;;;;;3.55;1.52;;;21.50;99.90;;;;;;5077092;28;20013;-84
2021/06/24 08:23:44;;;;;;;4.50;1.80;;;21.30;99.90;;;;;;5078523;28;20036;-83
2021/06/24 08:26:09;;;;;;;2.80;1.35;;;21.10;99.90;;;;;;5077006;28;20032;-83
2021/06/24 08:28:36;;;;;;;3.70;1.50;;;20.90;99.90;;;;;;5085131;28;20024;-83
2021/06/24 08:31:01;;;;;;;2.85;1.40;;;20.90;99.90;;;;;;5062588;28;20024;-84
2021/06/24 08:33:27;;;;;;;2.13;1.10;;;20.80;99.90;;;;;;5055172;28;20382;-85
2021/06/24 08:35:53;;;;;;;2.22;1.15;;;21.10;99.90;;;;;;5056897;28;20032;-85
2021/06/24 08:38:19;;;;;;;2.78;1.10;;;21.10;99.90;;;;;;5056014;28;20471;-83
2021/06/24 08:40:45;;;;;;;2.40;1.10;;;21.40;99.90;;;;;;5052869;28;20032;-84
2021/06/24 08:43:11;;;;;;;2.53;1.02;;;21.60;99.90;;;;;;5056823;28;20033;-83
2021/06/24 08:45:41;;;;;;;1.88;1.10;;;21.90;99.90;;;;;;5057640;28;20115;-87
2021/06/24 08:48:13;;;;;;;4.00;1.30;;;21.80;99.90;;;;;;5053228;28;20104;-83
2021/06/24 08:50:48;;;;;;;2.08;1.20;;;21.90;99.90;;;;;;5056074;28;20370;-85
2021/06/24 08:53:17;;;;;;;2.10;1.17;;;21.70;99.90;;;;;;5052032;28;20425;-86
2021/06/24 08:55:45;;;;;;;2.53;1.17;;;21.60;99.90;;;;;;5055051;28;20074;-86
2021/06/24 08:58:11;;;;;;;3.92;1.52;;;21.60;99.90;;;;;;5057513;28;20037;-86
2021/06/24 09:00:37;;;;;;;2.85;1.55;;;21.60;99.90;;;;;;5053462;28;20056;-86
2021/06/24 09:03:22;;;;;;;3.58;1.70;;;21.50;99.90;;;;;;5055078;28;20083;-85
2021/06/24 09:06:03;;;;;;;4.13;1.40;;;21.50;99.90;;;;;;5056281;28;20021;-86
2021/06/24 09:08:36;;;;;;;;;;;21.50;99.90;;;;;;5054350;28;20179;-85
2021/06/24 09:11:24;;;;;;;3.30;1.60;;;21.60;99.90;;;;;;5056129;28;19916;-86
2021/06/24 09:14:09;;;;;;;4.55;1.48;;;21.60;99.90;;;;;;5054718;28;20017;-85
2021/06/24 09:16:40;;;;;;;3.15;1.67;;;21.60;99.90;;;;;;5054038;28;20028;-84
2021/06/24 09:19:13;;;;;;;;;;;21.50;99.90;;;;;;5057772;28;20063;-85
2021/06/24 09:21:39;;;;;;;4.38;2.03;;;21.30;99.90;;;;;;5060276;28;19915;-85
2021/06/24 09:24:24;;;;;;;2.88;1.35;;;21.10;99.90;;;;;;5072260;28;20029;-84
2021/06/24 09:26:49;;;;;;;2.67;1.40;;;21.20;99.90;;;;;;5059511;28;20103;-83
2021/06/24 09:29:17;;;;;;;3.58;1.52;;;21.30;99.90;;;;;;5059301;28;20216;-83
2021/06/24 09:31:44;;;;;;;3.97;1.90;;;21.30;99.90;;;;;;5063716;28;20385;-84
2021/06/24 09:34:13;;;;;;;3.90;1.92;;;21.30;99.90;;;;;;5058107;28;20086;-82
2021/06/24 09:36:47;;;;;;;4.38;1.95;;;21.10;99.90;;;;;;5060161;28;20020;-83
2021/06/24 09:39:36;;;;;;;2.97;1.73;;;21.20;99.90;;;;;;5060354;28;20049;-84
2021/06/24 09:42:10;;;;;;;4.00;1.95;;;21.40;99.90;;;;;;5060096;28;20024;-84
2021/06/24 09:44:48;;;;;;;3.25;1.63;;;21.60;99.90;;;;;;5065947;28;20024;-83
2021/06/24 09:47:17;;;;;;;3.35;1.65;;;21.70;99.90;;;;;;5060325;28;20657;-83
2021/06/24 09:49:54;;;;;;;5.10;1.83;;;21.80;99.90;;;;;;5060035;28;20036;-83
2021/06/24 09:52:19;;;;;;;5.38;2.17;;;21.80;99.90;;;;;;5064649;28;20457;-86
2021/06/24 09:54:47;;;;;;;3.50;2.10;;;22.00;99.90;;;;;;5064116;28;20044;-85
2021/06/24 09:57:23;;;;;;;4.70;1.98;;;21.90;99.90;;;;;;5060618;28;20048;-84
2021/06/24 09:59:50;;;;;;;4.05;1.48;;;22.00;99.90;;;;;;5057949;28;20037;-83
2021/06/24 10:02:18;;;;;;;2.90;1.42;;;22.30;99.90;;;;;;5058880;28;20029;-83
2021/06/24 10:04:45;;;;;;;3.97;1.50;;;22.50;99.90;;;;;;5062016;28;20024;-84
2021/06/24 10:07:13;;;;;;;4.05;1.70;;;22.80;99.90;;;;;;5059165;28;20021;-83
2021/06/24 10:09:41;;;;;;;3.35;1.50;;;22.30;99.90;;;;;;5058518;28;20023;-83
2021/06/24 10:12:18;;;;;;;2.33;1.00;;;22.40;99.90;;;;;;5062222;28;20017;-83
2021/06/24 10:14:45;;;;;;;2.60;1.10;;;22.40;99.90;;;;;;5059287;28;20411;-83
2021/06/24 10:17:10;;;;;;;2.17;0.90;;;22.80;99.90;;;;;;5059588;28;20021;-84
2021/06/24 10:19:43;;;;;;;2.08;0.80;;;22.70;99.90;;;;;;5063530;28;20093;-84
2021/06/24 10:22:11;;;;;;;1.67;0.80;;;22.80;99.90;;;;;;5058526;28;20029;-83
2021/06/24 10:24:57;;;;;;;3.20;1.20;;;22.80;99.90;;;;;;5065824;28;20024;-86
2021/06/24 10:27:30;;;;;;;1.98;0.82;;;22.70;99.90;;;;;;5062201;28;20538;-84
2021/06/24 10:29:55;;;;;;;4.65;1.05;;;22.80;99.90;;;;;;5056971;28;20027;-84
2021/06/24 10:32:34;;;;;;;2.05;0.90;;;22.90;99.90;;;;;;5061012;28;20025;-84
2021/06/24 10:35:03;;;;;;;2.25;0.88;;;22.90;99.90;;;;;;5059490;28;20021;-82
2021/06/24 10:37:29;;;;;;;2.15;0.50;;;23.10;99.90;;;;;;5061128;28;20029;-83
2021/06/24 10:39:58;;;;;;;3.47;0.95;;;23.30;99.90;;;;;;5058849;28;20489;-82
2021/06/24 10:42:29;;;;;;;1.65;0.80;;;23.20;99.90;;;;;;5061683;28;20025;-84
2021/06/24 10:45:00;;;;;;;1.25;0.70;;;23.00;99.90;;;;;;5064364;28;20009;-82
2021/06/24 10:47:31;;;;;;;;;;;23.00;99.90;;;;;;5051613;28;20051;-84
2021/06/24 10:50:29;;;;;;;1.25;0.70;;;23.00;99.90;;;;;;5077232;28;19939;-85
2021/06/24 10:53:18;;;;;;;2.13;1.10;;;23.30;99.90;;;;;;5058262;28;20041;-85
2021/06/24 10:55:47;;;;;;;2.20;0.70;;;23.70;99.90;;;;;;5059811;28;20040;-83
2021/06/24 10:58:12;;;;;;;1.67;0.80;;;23.80;99.90;;;;;;5073914;28;20082;-83
2021/06/24 11:00:42;;;;;;;2.22;0.98;;;24.00;99.90;;;;;;5060104;28;20130;-83
2021/06/24 11:03:09;;;;;;;4.53;0.90;;;24.40;99.90;;;;;;5081073;28;20485;-84
2021/06/24 11:05:36;;;;;;;1.35;0.80;;;24.40;99.90;;;;;;5090844;28;20160;-82
2021/06/24 11:08:16;;;;;;;2.28;0.90;;;24.10;99.90;;;;;;5081712;28;20017;-82
2021/06/24 11:11:02;;;;;;;2.42;0.65;;;23.90;99.90;;;;;;5055397;28;20017;-85
2021/06/24 11:13:37;;;;;;;2.47;0.70;;;24.20;99.90;;;;;;5061675;28;20021;-84
2021/06/24 11:16:19;;;;;;;1.50;0.80;;;24.70;99.90;;;;;;5055804;28;20112;-84
2021/06/24 11:18:45;;;;;;;2.00;0.85;;;25.00;99.90;;;;;;5059269;28;20127;-85
2021/06/24 11:21:28;;;;;;;2.45;0.80;;;25.30;99.90;;;;;;5057171;28;20079;-85
2021/06/24 11:24:06;;;;;;;1.33;0.70;;;25.60;99.90;;;;;;5065029;28;20083;-84
2021/06/24 11:26:35;;;;;;;1.90;0.80;;;25.70;99.90;;;;;;5065516;28;20463;-84
2021/06/24 11:31:51;;;;;;;2.28;0.80;;;24.90;99.90;;;;;;5058947;28;20583;-85
2021/06/24 11:34:42;;;;;;;3.05;1.50;;;24.90;99.90;;;;;;5065582;28;20115;-84
2021/06/24 11:37:14;;;;;;;1.57;0.60;;;25.10;99.90;;;;;;5055054;28;20033;-84
2021/06/24 11:39:48;;;;;;;1.40;0.57;;;25.10;99.90;;;;;;5053573;28;20250;-84
2021/06/24 11:42:18;;;;;;;2.53;0.63;;;24.60;99.90;;;;;;5054936;28;20135;-84
2021/06/24 11:44:48;;;;;;;1.05;0.52;;;25.00;99.90;;;;;;5055866;28;20047;-84
2021/06/24 11:47:45;;;;;;;0.93;0.50;;;25.10;99.90;;;;;;5066472;28;20055;-84
2021/06/24 12:03:53;;;;;;;1.25;0.70;;;24.80;99.90;;;;;;5063990;28;20028;-85
2021/06/24 12:06:19;;;;;;;0.70;0.50;;;24.50;99.90;;;;;;5056115;28;20032;-83
2021/06/24 12:08:57;;;;;;;2.25;0.63;;;24.30;99.90;;;;;;5062416;28;20502;-86
2021/06/24 12:11:33;;;;;;;1.85;0.70;;;23.70;99.90;;;;;;5065653;28;20166;-83
2021/06/24 12:14:18;;;;;;;1.00;0.57;;;23.40;99.90;;;;;;5065016;28;20683;-83
2021/06/24 12:17:23;;;;;;;1.17;0.60;;;23.20;99.90;;;;;;5067175;28;20501;-82
2021/06/24 12:19:56;;;;;;;1.80;0.55;;;23.20;99.90;;;;;;5051808;28;20033;-83
2021/06/24 12:22:54;;;;;;;0.80;0.50;;;23.40;99.90;;;;;;5051902;28;20425;-82
2021/06/24 12:25:25;;;;;;;2.05;0.60;;;23.50;99.90;;;;;;5064423;28;20028;-83
2021/06/24 12:27:54;;;;;;;;;;;23.60;99.90;;;;;;5065230;28;20410;-84
2021/06/24 12:30:37;;;;;;;1.40;0.40;;;24.00;99.90;;;;;;5062866;28;19932;-83
2021/06/24 12:33:06;;;;;;;1.60;0.50;;;24.00;99.90;;;;;;5057029;28;20040;-83
2021/06/24 12:35:47;;;;;;;1.35;0.40;;;24.20;99.90;;;;;;5054682;28;20086;-83
2021/06/24 12:38:16;;;;;;;0.82;0.30;;;24.40;99.90;;;;;;5065193;28;20031;-82
2021/06/24 12:40:59;;;;;;;0.50;0.30;;;24.30;97.20;;;;;;5063860;28;20036;-83
2021/06/24 12:43:30;;;;;;;0.43;0.30;;;24.30;98.40;;;;;;5065043;28;20021;-82
2021/06/24 12:46:00;;;;;;;1.40;0.30;;;24.50;98.90;;;;;;5055793;28;20039;-82
2021/06/24 12:48:35;;;;;;;0.40;0.20;;;24.80;99.10;;;;;;5062068;28;20032;-82
2021/06/24 12:51:21;;;;;;;1.05;0.35;;;24.90;96.90;;;;;;5051788;28;20546;-82
2021/06/24 12:53:50;;;;;;;0.47;0.30;;;25.30;98.10;;;;;;5053769;28;20025;-82
2021/06/24 12:56:30;;;;;;;0.45;0.30;;;25.50;94.30;;;;;;5064586;28;20029;-83
2021/06/24 12:59:31;;;;;;;1.30;0.23;;;25.50;94.10;;;;;;5057153;28;20056;-82
2021/06/24 13:02:03;;;;;;;1.10;0.30;;;25.70;94.40;;;;;;5058884;28;20056;-83
2021/06/24 13:04:30;;;;;;;0.60;0.30;;;26.40;94.70;;;;;;5056345;28;20118;-84
2021/06/24 13:07:02;;;;;;;0.57;0.30;;;26.20;92.60;;;;;;5058416;28;20029;-82
2021/06/24 13:09:35;;;;;;;0.88;0.38;;;26.60;93.20;;;;;;5066440;28;20053;-82
2021/06/24 13:12:07;;;;;;;0.30;0.17;;;26.90;93.80;;;;;;5057381;28;20066;-83
2021/06/24 13:14:38;;;;;;;1.27;0.20;;;27.60;92.60;;;;;;5054014;28;20526;-82
2021/06/24 13:17:11;;;;;;;0.77;0.52;;;28.00;90.40;;;;;;5058031;28;20025;-83
2021/06/24 13:19:40;;;;;;;0.70;0.20;;;28.30;90.10;;;;;;5059328;28;20078;-83
2021/06/24 13:22:10;;;;;;;0.35;0.20;;;28.00;88.10;;;;;;5067492;28;20108;-82
2021/06/24 13:24:40;;;;;;;0.35;0.13;;;27.60;88.60;;;;;;5056367;28;20067;-83
2021/06/24 13:27:12;;;;;;;0.30;0.10;;;27.40;89.00;;;;;;5052559;28;20025;-83
2021/06/24 13:29:40;;;;;;;0.20;0.20;;;26.70;89.20;;;;;;5059174;28;20028;-83
2021/06/24 13:32:08;;;;;;;1.33;0.50;;;26.40;89.40;;;;;;5057180;28;20389;-82
2021/06/24 13:34:39;;;;;;;3.13;0.50;;;26.30;90.50;;;;;;5052601;28;20516;-82
2021/06/24 13:37:16;;;;;;;2.92;0.30;;;26.00;88.70;;;;;;5053184;28;20032;-82